Time;durP1;ratioP1;P1;durP2;ratioP2;P2;SDS_P1;SDS_P2;PMS_P1;PMS_P2;Temp;Humidity;BMP_temperature;BMP_pressure;BME280_temperature;BME280_humidity;BME280_pressure;Samples;Min_cycle;Max_cycle;Signal;HPM_P1;HPM_P2
2023/06/20 00:00:09;;;;;;;7.35;4.85;;;18.00;99.90;;;;;;5077758;28;20153;-68
2023/06/20 00:02:35;;;;;;;8.25;5.40;;;18.00;99.90;;;;;;5059154;28;20048;-68
2023/06/20 00:05:02;;;;;;;7.88;5.13;;;18.00;99.90;;;;;;5077055;28;20048;-68
2023/06/20 00:07:28;;;;;;;6.82;4.60;;;17.90;99.90;;;;;;5059452;28;20135;-68
2023/06/20 00:09:54;;;;;;;7.88;5.40;;;17.90;99.90;;;;;;5077229;28;20127;-68
2023/06/20 00:12:19;;;;;;;7.97;5.20;;;17.90;99.90;;;;;;5060196;28;20449;-68
2023/06/20 00:14:45;;;;;;;7.20;5.28;;;17.90;99.90;;;;;;5060160;28;20491;-68
2023/06/20 00:17:11;;;;;;;6.72;4.65;;;17.90;99.90;;;;;;5076812;28;20044;-68
2023/06/20 00:19:36;;;;;;;8.30;5.50;;;17.90;99.90;;;;;;5076722;28;20101;-68
2023/06/20 00:22:02;;;;;;;7.82;5.18;;;17.80;99.90;;;;;;5077554;28;20181;-68
2023/06/20 00:24:32;;;;;;;7.10;5.05;;;17.80;99.90;;;;;;5076975;28;20049;-68
2023/06/20 00:27:02;;;;;;;6.57;4.97;;;17.70;99.90;;;;;;5076665;28;20151;-68
2023/06/20 00:29:27;;;;;;;8.30;5.18;;;17.70;99.90;;;;;;5076661;28;20377;-68
2023/06/20 00:31:53;;;;;;;7.55;5.13;;;17.60;99.90;;;;;;5076483;28;20123;-68
2023/06/20 00:34:19;;;;;;;8.73;5.05;;;17.60;99.90;;;;;;5076564;28;20363;-68
2023/06/20 00:36:45;;;;;;;8.07;5.47;;;17.50;99.90;;;;;;5058734;28;20068;-68
2023/06/20 00:39:10;;;;;;;7.95;5.53;;;17.50;99.90;;;;;;5077302;28;20066;-68
2023/06/20 00:41:36;;;;;;;7.20;5.30;;;17.40;99.90;;;;;;5058688;28;20045;-68
2023/06/20 00:44:04;;;;;;;7.25;5.60;;;17.40;99.90;;;;;;5076403;28;20127;-68
2023/06/20 00:46:32;;;;;;;7.60;5.50;;;17.40;99.90;;;;;;5076938;28;20571;-68
2023/06/20 00:48:59;;;;;;;7.15;5.00;;;17.40;99.90;;;;;;5075672;28;20492;-68
2023/06/20 00:51:28;;;;;;;7.70;5.03;;;17.40;99.90;;;;;;5076249;28;20045;-68
2023/06/20 00:53:55;;;;;;;8.13;5.07;;;17.40;99.90;;;;;;5076762;28;20056;-68
2023/06/20 00:56:26;;;;;;;10.18;5.47;;;17.40;99.90;;;;;;5076883;28;20058;-68
2023/06/20 00:58:52;;;;;;;8.05;5.22;;;17.40;99.90;;;;;;5076676;28;20048;-68
2023/06/20 01:01:21;;;;;;;8.32;5.40;;;17.40;99.90;;;;;;5059015;28;20052;-67
2023/06/20 01:03:51;;;;;;;7.82;5.35;;;17.40;99.90;;;;;;5076063;28;20049;-67
2023/06/20 01:06:52;;;;;;;9.15;5.28;;;17.40;99.90;;;;;;5076545;28;20084;-68
2023/06/20 01:09:23;;;;;;;8.75;4.95;;;17.40;99.90;;;;;;5064871;28;20056;-68
2023/06/20 01:12:07;;;;;;;8.95;5.65;;;17.30;99.90;;;;;;5058125;28;20093;-68
2023/06/20 01:14:46;;;;;;;8.55;5.80;;;17.30;99.90;;;;;;5075878;28;20055;-68
2023/06/20 01:17:22;;;;;;;8.02;5.20;;;17.30;99.90;;;;;;5076952;28;20380;-68
2023/06/20 01:20:04;;;;;;;7.82;5.18;;;17.30;99.90;;;;;;5076066;28;20189;-68
2023/06/20 01:22:39;;;;;;;9.65;6.00;;;17.30;99.90;;;;;;5058671;28;20415;-68
2023/06/20 01:25:11;;;;;;;8.55;6.25;;;17.30;99.90;;;;;;5075912;28;20045;-68
2023/06/20 01:27:42;;;;;;;8.68;5.70;;;17.30;99.90;;;;;;5075967;28;20102;-68
2023/06/20 01:30:21;;;;;;;9.88;6.70;;;17.30;99.90;;;;;;5076384;28;20056;-68
2023/06/20 01:32:50;;;;;;;9.27;6.07;;;17.20;99.90;;;;;;5075463;28;20036;-68
2023/06/20 01:35:21;;;;;;;8.90;6.43;;;17.20;99.90;;;;;;5075443;28;20045;-68
2023/06/20 01:37:52;;;;;;;8.63;6.60;;;17.20;99.90;;;;;;5076008;28;20044;-68
2023/06/20 01:40:23;;;;;;;10.00;6.30;;;17.10;99.90;;;;;;5075840;28;20044;-68
2023/06/20 01:42:50;;;;;;;9.50;6.80;;;17.10;99.90;;;;;;5076068;28;20055;-68
2023/06/20 01:45:19;;;;;;;8.02;5.90;;;17.10;99.90;;;;;;5057602;28;20057;-68
2023/06/20 01:47:47;;;;;;;9.30;6.63;;;17.10;99.90;;;;;;5074884;28;20048;-68
2023/06/20 01:50:14;;;;;;;8.60;6.18;;;17.10;99.90;;;;;;5075141;28;20135;-68
2023/06/20 01:52:42;;;;;;;11.20;6.88;;;17.10;99.90;;;;;;5075106;28;20106;-68
2023/06/20 01:55:10;;;;;;;9.35;6.65;;;17.10;99.90;;;;;;5075109;28;20044;-68
2023/06/20 01:57:37;;;;;;;9.68;6.57;;;17.10;99.90;;;;;;5057354;28;20481;-68
2023/06/20 02:00:07;;;;;;;11.27;7.00;;;17.20;99.90;;;;;;5075687;28;20367;-68
2023/06/20 02:02:35;;;;;;;11.82;7.93;;;17.20;99.90;;;;;;5057738;28;20144;-68
2023/06/20 02:05:02;;;;;;;10.27;7.15;;;17.20;99.90;;;;;;5075364;28;20040;-68
2023/06/20 02:07:30;;;;;;;10.07;7.07;;;17.20;99.90;;;;;;5074785;28;20044;-68
2023/06/20 02:09:58;;;;;;;12.10;7.70;;;17.20;99.90;;;;;;5074704;28;20048;-68
2023/06/20 02:12:25;;;;;;;10.68;7.40;;;17.20;99.90;;;;;;5057411;28;20048;-68
2023/06/20 02:14:52;;;;;;;9.70;7.00;;;17.20;99.90;;;;;;5075130;28;20052;-68
2023/06/20 02:17:19;;;;;;;9.07;6.80;;;17.20;99.90;;;;;;5074598;28;20082;-67
2023/06/20 02:19:44;;;;;;;9.63;7.50;;;17.20;99.90;;;;;;5057180;28;20056;-68
2023/06/20 02:22:14;;;;;;;11.57;7.70;;;17.20;99.90;;;;;;5074900;28;20032;-67
2023/06/20 02:24:42;;;;;;;10.18;7.25;;;17.30;99.90;;;;;;5074378;28;20048;-67
2023/06/20 02:27:09;;;;;;;10.35;7.63;;;17.20;99.90;;;;;;5075207;28;20173;-67
2023/06/20 02:29:38;;;;;;;11.02;7.20;;;17.30;99.90;;;;;;5074264;28;20554;-67
2023/06/20 02:32:05;;;;;;;11.63;7.93;;;17.30;99.90;;;;;;5074739;28;20132;-68
2023/06/20 02:34:33;;;;;;;10.73;7.75;;;17.30;99.90;;;;;;5074808;28;20040;-68
2023/06/20 02:37:00;;;;;;;10.05;7.50;;;17.30;99.90;;;;;;5074774;28;20094;-68
2023/06/20 02:39:26;;;;;;;11.40;7.82;;;17.30;99.90;;;;;;5074204;28;20052;-68
2023/06/20 02:41:51;;;;;;;10.18;7.28;;;17.30;99.90;;;;;;5074582;28;20484;-67
2023/06/20 02:44:17;;;;;;;10.23;7.80;;;17.30;99.90;;;;;;5074104;28;20059;-67
2023/06/20 02:46:48;;;;;;;14.52;8.20;;;17.30;99.90;;;;;;5073904;28;20057;-68
2023/06/20 02:49:36;;;;;;;11.38;7.57;;;17.30;99.90;;;;;;5074041;28;20142;-68
2023/06/20 02:52:20;;;;;;;12.43;7.25;;;17.30;99.90;;;;;;5074493;28;20401;-68
2023/06/20 02:54:52;;;;;;;12.48;7.88;;;17.30;99.90;;;;;;5073968;28;20052;-68
2023/06/20 02:57:20;;;;;;;10.52;7.35;;;17.30;99.90;;;;;;5073917;28;20040;-67
2023/06/20 02:59:52;;;;;;;9.88;7.20;;;17.30;99.90;;;;;;5056475;28;20090;-68
2023/06/20 03:02:19;;;;;;;9.20;7.40;;;17.30;99.90;;;;;;5056791;28;20052;-67
2023/06/20 03:04:47;;;;;;;11.00;7.25;;;17.30;99.90;;;;;;5074350;28;20048;-67
2023/06/20 03:07:14;;;;;;;10.60;7.72;;;17.30;99.90;;;;;;5073737;28;20140;-67
2023/06/20 03:09:40;;;;;;;10.18;7.60;;;17.30;99.90;;;;;;5074020;28;20094;-68
2023/06/20 03:12:07;;;;;;;10.30;7.40;;;17.30;99.90;;;;;;5073206;28;20044;-68
2023/06/20 03:14:33;;;;;;;10.30;7.45;;;17.40;99.90;;;;;;5074495;28;20080;-68
2023/06/20 03:16:59;;;;;;;14.45;7.88;;;17.40;99.90;;;;;;5073577;28;20512;-68
2023/06/20 03:19:25;;;;;;;11.43;7.63;;;17.40;99.90;;;;;;5073364;28;20055;-68
2023/06/20 03:21:51;;;;;;;10.95;7.68;;;17.40;99.90;;;;;;5055323;28;20419;-68
2023/06/20 03:24:16;;;;;;;10.50;7.30;;;17.30;99.90;;;;;;5073646;28;20098;-68
2023/06/20 03:26:42;;;;;;;10.98;7.20;;;17.30;99.90;;;;;;5073385;28;20496;-68
2023/06/20 03:29:08;;;;;;;10.30;7.75;;;17.30;99.90;;;;;;5073427;28;20048;-68
2023/06/20 03:31:34;;;;;;;10.55;7.80;;;17.30;99.90;;;;;;5073370;28;20043;-68
2023/06/20 03:33:59;;;;;;;10.63;7.78;;;17.30;99.90;;;;;;5073412;28;20047;-68
2023/06/20 03:36:25;;;;;;;12.57;9.02;;;17.30;99.90;;;;;;5073999;28;20040;-68
2023/06/20 03:38:51;;;;;;;11.68;7.38;;;17.30;99.90;;;;;;5073900;28;20044;-68
2023/06/20 03:41:16;;;;;;;10.93;8.00;;;17.30;99.90;;;;;;5072975;28;20049;-68
2023/06/20 03:43:42;;;;;;;10.27;7.35;;;17.30;99.90;;;;;;5073367;28;20044;-68
2023/06/20 03:46:08;;;;;;;11.65;7.40;;;17.30;99.90;;;;;;5073401;28;20080;-68
2023/06/20 03:48:33;;;;;;;10.57;7.15;;;17.30;99.90;;;;;;5073569;28;20079;-68
2023/06/20 03:50:59;;;;;;;10.93;7.22;;;17.30;99.90;;;;;;5073628;28;20052;-68
2023/06/20 03:53:25;;;;;;;10.18;7.28;;;17.40;99.90;;;;;;5073590;28;20044;-68
2023/06/20 03:55:50;;;;;;;10.80;7.65;;;17.40;99.90;;;;;;5073290;28;20044;-68
2023/06/20 03:58:16;;;;;;;10.95;7.32;;;17.30;99.90;;;;;;5055566;28;20048;-68
2023/06/20 04:00:42;;;;;;;10.07;6.85;;;17.30;99.90;;;;;;5073080;28;20076;-68
2023/06/20 04:03:08;;;;;;;10.25;6.82;;;17.30;99.90;;;;;;5073098;28;20455;-68
2023/06/20 04:05:34;;;;;;;10.60;7.32;;;17.40;99.90;;;;;;5073133;28;20052;-68
2023/06/20 04:08:01;;;;;;;10.88;7.22;;;17.40;99.90;;;;;;5056352;28;20094;-68
2023/06/20 04:10:27;;;;;;;9.63;7.25;;;17.40;99.90;;;;;;5073636;28;20052;-68
2023/06/20 04:12:52;;;;;;;9.75;7.25;;;17.50;99.90;;;;;;5056067;28;20373;-68
2023/06/20 04:15:18;;;;;;;10.00;7.32;;;17.50;99.90;;;;;;5073654;28;20055;-68
2023/06/20 04:17:45;;;;;;;9.35;6.80;;;17.50;99.90;;;;;;5073040;28;20041;-68
2023/06/20 04:20:14;;;;;;;10.43;7.35;;;17.50;99.90;;;;;;5056151;28;20049;-68
2023/06/20 04:22:42;;;;;;;11.23;7.88;;;17.60;99.90;;;;;;5073740;28;20040;-68
2023/06/20 04:25:08;;;;;;;10.65;7.55;;;17.60;99.90;;;;;;5076754;28;20056;-68
2023/06/20 04:27:34;;;;;;;11.50;7.80;;;17.60;99.90;;;;;;5076747;28;20083;-68
2023/06/20 04:30:01;;;;;;;9.57;7.50;;;17.60;99.90;;;;;;5076371;28;20099;-68
2023/06/20 04:32:26;;;;;;;10.25;7.70;;;17.60;99.90;;;;;;5076743;28;20036;-68
2023/06/20 04:34:52;;;;;;;11.38;7.32;;;17.60;99.90;;;;;;5042113;28;20366;-68
2023/06/20 04:37:19;;;;;;;11.93;7.70;;;17.70;99.90;;;;;;5058831;28;20056;-68
2023/06/20 04:39:44;;;;;;;10.20;7.38;;;17.70;99.90;;;;;;5076389;28;20052;-68
2023/06/20 04:42:10;;;;;;;9.45;7.40;;;17.70;99.90;;;;;;5058601;28;20047;-68
2023/06/20 04:44:36;;;;;;;9.93;7.43;;;17.80;99.90;;;;;;5058784;28;20401;-68
2023/06/20 04:47:02;;;;;;;9.75;6.93;;;17.80;99.90;;;;;;5076789;28;20060;-67
2023/06/20 04:49:28;;;;;;;8.57;7.00;;;17.90;99.90;;;;;;5075939;28;20580;-68
2023/06/20 04:51:57;;;;;;;9.60;7.28;;;17.90;99.90;;;;;;5076344;28;20073;-67
2023/06/20 04:54:24;;;;;;;10.07;7.07;;;17.90;99.90;;;;;;5076187;28;20489;-67
2023/06/20 04:56:50;;;;;;;9.88;7.20;;;18.00;99.90;;;;;;5076205;28;20114;-67
2023/06/20 04:59:15;;;;;;;11.18;7.05;;;18.00;99.90;;;;;;5058849;28;20040;-68
2023/06/20 05:01:41;;;;;;;10.15;7.03;;;18.10;99.90;;;;;;5075937;28;20127;-68
2023/06/20 05:04:07;;;;;;;9.65;7.10;;;18.20;99.90;;;;;;5058168;28;20091;-68
2023/06/20 05:06:32;;;;;;;8.95;6.65;;;18.20;99.90;;;;;;5075938;28;20047;-67
2023/06/20 05:08:59;;;;;;;9.38;7.50;;;18.30;99.90;;;;;;5058088;28;20059;-68
2023/06/20 05:11:26;;;;;;;11.00;7.55;;;18.40;99.90;;;;;;5075856;28;20049;-68
2023/06/20 05:13:52;;;;;;;11.50;6.95;;;18.40;99.90;;;;;;5075571;28;20536;-67
2023/06/20 05:16:17;;;;;;;11.55;7.13;;;18.50;99.90;;;;;;5075751;28;20174;-68
2023/06/20 05:18:46;;;;;;;10.45;6.75;;;18.60;99.90;;;;;;5076348;28;20132;-68
2023/06/20 05:21:12;;;;;;;8.27;7.10;;;18.60;99.90;;;;;;5075775;28;20048;-69
2023/06/20 05:23:38;;;;;;;9.50;6.57;;;18.80;99.90;;;;;;5075797;28;20486;-68
2023/06/20 05:26:03;;;;;;;9.10;6.82;;;18.80;99.90;;;;;;5057842;28;20048;-70
2023/06/20 05:28:29;;;;;;;11.98;6.78;;;18.90;99.90;;;;;;5075582;28;20048;-67
2023/06/20 05:30:55;;;;;;;8.85;6.95;;;18.90;99.90;;;;;;5075507;28;20044;-67
2023/06/20 05:33:20;;;;;;;8.63;7.00;;;19.00;99.90;;;;;;5075340;28;20044;-68
2023/06/20 05:35:46;;;;;;;8.13;6.80;;;19.00;99.90;;;;;;5057141;28;20087;-67
2023/06/20 05:38:13;;;;;;;7.82;6.22;;;19.00;99.90;;;;;;5075434;28;20044;-68
2023/06/20 05:40:39;;;;;;;9.80;6.95;;;19.10;99.90;;;;;;5075285;28;20053;-68
2023/06/20 05:43:05;;;;;;;9.38;6.55;;;19.20;99.90;;;;;;5075169;28;20366;-68
2023/06/20 05:45:30;;;;;;;9.00;6.07;;;19.20;99.90;;;;;;5074868;28;20059;-67
2023/06/20 05:47:58;;;;;;;8.38;6.88;;;19.20;99.90;;;;;;5075758;28;20052;-67
2023/06/20 05:50:25;;;;;;;8.88;6.63;;;19.30;99.90;;;;;;5075849;28;20056;-67
2023/06/20 05:52:51;;;;;;;8.80;6.93;;;19.40;99.90;;;;;;5075713;28;20085;-68
2023/06/20 05:55:17;;;;;;;9.27;6.97;;;19.50;99.90;;;;;;5075064;28;20109;-67
2023/06/20 05:57:43;;;;;;;9.05;6.70;;;19.50;99.90;;;;;;5074911;28;20044;-68
2023/06/20 06:00:12;;;;;;;8.23;6.30;;;19.60;99.90;;;;;;5074523;28;20512;-68
2023/06/20 06:02:44;;;;;;;9.40;6.75;;;19.70;99.90;;;;;;5074729;28;20052;-68
2023/06/20 06:05:10;;;;;;;10.63;7.13;;;19.80;99.90;;;;;;5074873;28;20182;-68
2023/06/20 06:07:37;;;;;;;9.27;6.82;;;19.90;99.90;;;;;;5075617;28;20124;-68
2023/06/20 06:10:04;;;;;;;8.50;6.57;;;20.00;99.90;;;;;;5075524;28;20048;-61
2023/06/20 06:12:30;;;;;;;8.18;6.50;;;20.00;99.90;;;;;;5075219;28;20052;-61
2023/06/20 06:14:56;;;;;;;8.88;6.80;;;20.10;99.90;;;;;;5074594;28;20048;-61
2023/06/20 06:17:21;;;;;;;9.80;6.72;;;20.10;99.90;;;;;;5074673;28;20440;-61
2023/06/20 06:19:47;;;;;;;8.82;7.10;;;20.10;99.90;;;;;;5074568;28;20366;-60
2023/06/20 06:22:13;;;;;;;8.45;6.50;;;20.10;99.90;;;;;;5074925;28;20385;-61
2023/06/20 06:24:38;;;;;;;8.15;6.53;;;20.10;99.90;;;;;;5074787;28;20044;-61
2023/06/20 06:27:05;;;;;;;8.90;6.70;;;20.10;99.90;;;;;;5074369;28;20048;-61
2023/06/20 06:29:30;;;;;;;10.98;7.22;;;20.10;99.90;;;;;;5074366;28;20050;-61
2023/06/20 06:31:58;;;;;;;7.07;6.18;;;20.20;99.90;;;;;;5056601;28;20048;-61
2023/06/20 06:34:26;;;;;;;9.85;7.03;;;20.20;99.90;;;;;;5074159;28;20117;-61
2023/06/20 06:36:52;;;;;;;9.35;6.80;;;20.30;99.90;;;;;;5074199;28;20063;-60
2023/06/20 06:39:18;;;;;;;10.50;6.75;;;20.30;99.90;;;;;;5056726;28;20441;-61
2023/06/20 06:41:47;;;;;;;9.25;6.90;;;20.40;99.90;;;;;;5074037;28;20040;-61
2023/06/20 06:44:13;;;;;;;9.57;6.88;;;20.40;99.90;;;;;;5074044;28;20084;-61
2023/06/20 06:46:38;;;;;;;11.70;6.55;;;20.50;99.90;;;;;;5073449;28;20100;-61
2023/06/20 06:49:04;;;;;;;10.10;7.45;;;20.50;99.90;;;;;;5073717;28;20087;-61
2023/06/20 06:51:30;;;;;;;9.88;7.85;;;20.50;99.90;;;;;;5074015;28;20047;-61
2023/06/20 06:53:55;;;;;;;12.35;7.93;;;20.50;99.90;;;;;;5073932;28;20414;-61
2023/06/20 06:56:21;;;;;;;12.63;6.82;;;20.50;99.90;;;;;;5073849;28;20044;-61
2023/06/20 06:58:47;;;;;;;10.02;7.32;;;20.50;99.90;;;;;;5074208;28;20130;-61
2023/06/20 07:01:12;;;;;;;9.82;7.57;;;20.60;99.90;;;;;;5073910;28;20048;-61
2023/06/20 07:03:38;;;;;;;11.50;7.78;;;20.60;99.90;;;;;;5073608;28;20481;-61
2023/06/20 07:06:04;;;;;;;10.23;8.05;;;20.60;99.90;;;;;;5073951;28;20117;-61
2023/06/20 07:08:29;;;;;;;8.90;7.63;;;20.60;99.90;;;;;;5073930;28;20044;-63
2023/06/20 07:10:55;;;;;;;10.82;7.78;;;20.60;99.90;;;;;;5073358;28;20041;-62
2023/06/20 07:13:23;;;;;;;10.52;7.78;;;20.70;99.90;;;;;;5073650;28;20067;-61
2023/06/20 07:15:49;;;;;;;10.30;7.68;;;20.70;99.90;;;;;;5073690;28;20059;-62
2023/06/20 07:18:15;;;;;;;11.13;8.25;;;20.70;99.90;;;;;;5073502;28;20041;-61
2023/06/20 07:20:40;;;;;;;9.50;7.97;;;20.80;99.90;;;;;;5073894;28;20131;-62
2023/06/20 07:23:06;;;;;;;9.05;7.68;;;20.80;99.90;;;;;;5073465;28;20037;-62
2023/06/20 07:25:32;;;;;;;9.77;8.10;;;20.90;99.90;;;;;;5073494;28;20552;-62
2023/06/20 07:27:58;;;;;;;10.20;7.80;;;20.90;99.90;;;;;;5055868;28;20123;-61
2023/06/20 07:30:23;;;;;;;10.65;8.10;;;20.90;99.90;;;;;;5038939;28;20128;-62
2023/06/20 07:32:49;;;;;;;9.35;7.50;;;20.90;99.90;;;;;;5055450;28;20048;-62
2023/06/20 07:35:15;;;;;;;9.73;7.28;;;21.00;99.90;;;;;;5073406;28;20048;-62
2023/06/20 07:37:41;;;;;;;11.63;8.30;;;21.00;99.90;;;;;;5074135;28;20071;-63
2023/06/20 07:40:07;;;;;;;10.43;7.63;;;21.00;99.90;;;;;;5073349;28;20501;-62
2023/06/20 07:42:33;;;;;;;9.77;8.23;;;21.10;99.90;;;;;;5073772;28;20040;-62
2023/06/20 07:44:59;;;;;;;10.20;8.05;;;21.20;99.90;;;;;;5073281;28;20090;-61
2023/06/20 07:47:24;;;;;;;11.23;7.75;;;21.30;99.90;;;;;;5073773;28;20091;-61
2023/06/20 07:49:50;;;;;;;11.43;7.72;;;21.30;99.90;;;;;;5073187;28;20481;-61
2023/06/20 07:52:16;;;;;;;10.63;7.70;;;21.40;99.90;;;;;;5055559;28;20435;-61
2023/06/20 07:54:42;;;;;;;9.88;8.50;;;21.40;99.90;;;;;;5073698;28;20049;-61
2023/06/20 07:57:07;;;;;;;11.32;8.68;;;21.40;99.90;;;;;;5055964;28;20067;-61
2023/06/20 07:59:33;;;;;;;11.90;7.55;;;21.50;99.90;;;;;;5059243;28;20048;-61
2023/06/20 08:01:59;;;;;;;10.18;8.23;;;21.60;99.90;;;;;;5076925;28;20047;-60
2023/06/20 08:04:24;;;;;;;8.90;7.53;;;21.70;99.90;;;;;;5077865;28;20051;-61
2023/06/20 08:06:50;;;;;;;10.05;7.65;;;21.80;99.90;;;;;;5059100;28;20048;-61
2023/06/20 08:09:16;;;;;;;10.52;7.38;;;21.90;99.90;;;;;;5077563;28;20131;-61
2023/06/20 08:11:42;;;;;;;10.65;7.25;;;22.10;99.90;;;;;;5059224;28;20051;-61
2023/06/20 08:14:08;;;;;;;8.30;7.22;;;22.20;99.90;;;;;;5076787;28;20045;-61
2023/06/20 08:16:33;;;;;;;12.05;7.57;;;22.30;99.90;;;;;;5076793;28;20047;-61
2023/06/20 08:18:59;;;;;;;10.95;7.55;;;22.40;99.90;;;;;;5077438;28;20048;-61
2023/06/20 08:21:25;;;;;;;9.25;7.15;;;22.50;99.90;;;;;;5076555;28;20135;-61
2023/06/20 08:23:51;;;;;;;8.88;7.00;;;22.60;99.90;;;;;;5076766;28;20056;-61
2023/06/20 08:26:16;;;;;;;9.35;7.20;;;22.70;99.90;;;;;;5077283;28;20057;-61
2023/06/20 08:28:42;;;;;;;8.50;7.50;;;22.80;99.90;;;;;;5059279;28;20428;-61
2023/06/20 08:31:08;;;;;;;9.32;7.57;;;22.90;99.90;;;;;;5077442;28;20101;-61
2023/06/20 08:33:33;;;;;;;10.93;7.47;;;23.20;99.90;;;;;;5076559;28;20469;-61
2023/06/20 08:35:59;;;;;;;7.30;6.60;;;23.40;99.90;;;;;;5076243;28;20093;-62
2023/06/20 08:38:25;;;;;;;8.02;6.57;;;23.50;99.90;;;;;;5058871;28;20079;-61
2023/06/20 08:40:50;;;;;;;7.93;6.65;;;23.50;99.90;;;;;;5077247;28;20123;-61
2023/06/20 08:43:17;;;;;;;9.75;6.70;;;23.40;99.90;;;;;;5076362;28;20036;-61
2023/06/20 08:45:43;;;;;;;8.32;6.60;;;23.40;99.90;;;;;;5076163;28;20049;-63
2023/06/20 08:48:10;;;;;;;8.55;6.60;;;23.50;99.90;;;;;;5077145;28;20110;-62
2023/06/20 08:50:37;;;;;;;8.85;6.95;;;23.70;99.90;;;;;;5076576;28;20481;-61
2023/06/20 08:53:05;;;;;;;8.15;6.90;;;23.90;99.90;;;;;;5076757;28;20087;-61
2023/06/20 08:55:32;;;;;;;8.68;6.57;;;23.90;99.90;;;;;;5076504;28;20128;-61
2023/06/20 08:57:58;;;;;;;8.98;7.28;;;23.80;99.90;;;;;;5076136;28;20573;-61
2023/06/20 09:00:24;;;;;;;10.50;7.53;;;24.00;99.90;;;;;;5076363;28;20124;-61
2023/06/20 09:02:54;;;;;;;7.35;6.43;;;24.20;99.90;;;;;;5076450;28;20066;-61
2023/06/20 09:05:20;;;;;;;8.45;6.68;;;24.30;99.90;;;;;;5076664;28;20079;-62
2023/06/20 09:07:47;;;;;;;8.90;6.43;;;24.40;99.90;;;;;;5075692;28;20513;-61
2023/06/20 09:10:17;;;;;;;7.25;6.50;;;24.50;99.90;;;;;;5075496;28;20055;-61
2023/06/20 09:12:54;;;;;;;7.35;6.25;;;24.70;99.90;;;;;;5076481;28;20049;-61
2023/06/20 09:15:22;;;;;;;7.55;6.43;;;24.90;99.90;;;;;;5057964;28;20047;-61
2023/06/20 09:17:53;;;;;;;8.30;6.32;;;25.30;99.90;;;;;;5075792;28;20044;-62
2023/06/20 09:20:19;;;;;;;6.68;5.75;;;25.60;99.90;;;;;;5075546;28;20489;-61
2023/06/20 09:22:45;;;;;;;6.28;5.30;;;25.80;99.90;;;;;;5075575;28;20041;-61
2023/06/20 09:25:12;;;;;;;6.75;5.55;;;26.10;99.90;;;;;;5057915;28;20044;-61
2023/06/20 09:27:40;;;;;;;7.38;6.13;;;26.30;99.90;;;;;;5075578;28;20052;-61
2023/06/20 09:30:07;;;;;;;7.32;6.15;;;26.50;99.90;;;;;;5075253;28;20493;-61
2023/06/20 09:32:39;;;;;;;6.68;5.80;;;26.60;99.90;;;;;;5075442;28;20090;-61
2023/06/20 09:35:07;;;;;;;6.10;5.47;;;26.70;99.90;;;;;;5075549;28;20554;-61
2023/06/20 09:37:49;;;;;;;6.15;5.05;;;26.80;99.90;;;;;;5075179;28;20084;-62
2023/06/20 09:40:16;;;;;;;6.78;5.38;;;26.90;99.90;;;;;;5057475;28;20056;-62
2023/06/20 09:42:44;;;;;;;7.68;5.25;;;27.00;99.90;;;;;;5076084;28;20158;-61
2023/06/20 09:45:11;;;;;;;6.03;5.43;;;27.00;99.90;;;;;;5075142;28;20044;-61
2023/06/20 09:47:39;;;;;;;6.70;5.07;;;27.00;99.90;;;;;;5075763;28;20062;-61
2023/06/20 09:50:07;;;;;;;5.85;4.18;;;27.10;99.90;;;;;;5057377;28;20051;-61
2023/06/20 09:52:43;;;;;;;6.22;4.95;;;27.30;99.90;;;;;;5075144;28;20041;-61
2023/06/20 09:55:11;;;;;;;6.45;5.13;;;27.40;99.90;;;;;;5075165;28;20110;-61
2023/06/20 09:57:43;;;;;;;5.35;4.18;;;27.50;99.90;;;;;;5058179;28;20071;-62
2023/06/20 10:00:16;;;;;;;4.85;4.13;;;27.60;99.90;;;;;;5057644;28;20044;-61
2023/06/20 10:02:46;;;;;;;4.45;3.95;;;27.60;99.90;;;;;;5074768;28;20037;-61
2023/06/20 10:05:20;;;;;;;5.10;4.15;;;27.70;99.90;;;;;;5075372;28;20044;-61
2023/06/20 10:07:47;;;;;;;5.20;4.45;;;27.90;99.90;;;;;;5074850;28;20496;-61
2023/06/20 10:10:15;;;;;;;5.47;4.35;;;28.00;99.90;;;;;;5074794;28;20055;-61
2023/06/20 10:12:42;;;;;;;5.15;4.65;;;28.10;99.90;;;;;;5075193;28;20044;-62
2023/06/20 10:15:09;;;;;;;7.63;4.80;;;28.00;99.90;;;;;;5074643;28;20048;-61
2023/06/20 10:17:40;;;;;;;5.82;4.75;;;28.00;99.90;;;;;;5074576;28;20052;-61
2023/06/20 10:20:08;;;;;;;6.20;4.50;;;28.10;99.90;;;;;;5075055;28;20059;-61
2023/06/20 10:22:37;;;;;;;5.60;4.53;;;28.30;99.90;;;;;;5073795;28;20477;-62
2023/06/20 10:25:14;;;;;;;4.90;4.40;;;28.30;99.90;;;;;;5056788;28;20473;-62
2023/06/20 10:28:04;;;;;;;5.90;4.88;;;28.40;99.90;;;;;;5074296;28;20040;-62
2023/06/20 10:30:53;;;;;;;6.72;4.80;;;28.20;99.90;;;;;;5066815;28;20060;-61
2023/06/20 10:33:27;;;;;;;4.95;4.45;;;28.00;99.90;;;;;;5074739;28;20094;-61
2023/06/20 10:36:04;;;;;;;5.70;5.10;;;27.90;99.90;;;;;;5074318;28;20113;-61
2023/06/20 10:38:51;;;;;;;4.68;4.18;;;27.80;99.90;;;;;;5074030;28;20055;-61
2023/06/20 10:41:24;;;;;;;4.72;4.15;;;27.70;99.90;;;;;;5072558;28;20044;-62
2023/06/20 10:44:00;;;;;;;5.15;4.20;;;27.70;99.90;;;;;;5074464;28;20472;-61
2023/06/20 10:46:41;;;;;;;6.75;4.30;;;27.70;99.90;;;;;;5074754;28;20056;-61
2023/06/20 10:49:08;;;;;;;4.72;3.90;;;27.80;99.90;;;;;;5074367;28;20059;-62
2023/06/20 10:51:48;;;;;;;5.35;4.60;;;27.70;99.90;;;;;;5074020;28;20092;-61
2023/06/20 10:54:15;;;;;;;5.20;4.63;;;27.60;99.90;;;;;;5074015;28;20473;-61
2023/06/20 10:56:40;;;;;;;7.63;5.00;;;27.50;99.90;;;;;;5074708;28;20040;-61
2023/06/20 10:59:17;;;;;;;4.90;4.25;;;27.60;99.90;;;;;;5073694;28;20558;-61
2023/06/20 11:01:43;;;;;;;5.82;4.60;;;27.70;99.90;;;;;;5055749;28;20044;-61
2023/06/20 11:04:16;;;;;;;4.70;4.30;;;27.90;99.90;;;;;;5073550;28;20054;-61
2023/06/20 11:06:42;;;;;;;6.03;4.68;;;28.10;99.90;;;;;;5073771;28;20052;-62
2023/06/20 11:09:24;;;;;;;5.10;4.60;;;28.30;99.90;;;;;;5073771;28;20105;-62
2023/06/20 11:11:51;;;;;;;5.22;4.43;;;28.60;99.90;;;;;;5074443;28;20381;-62
2023/06/20 11:14:21;;;;;;;5.90;4.47;;;29.00;99.90;;;;;;5074157;28;20079;-62
2023/06/20 11:16:49;;;;;;;5.43;4.93;;;29.10;99.90;;;;;;5073565;28;20048;-62
2023/06/20 11:19:15;;;;;;;5.95;4.60;;;29.20;99.90;;;;;;5074439;28;20040;-62
2023/06/20 11:21:43;;;;;;;5.35;4.32;;;29.10;99.90;;;;;;5073954;28;20503;-62
2023/06/20 11:24:10;;;;;;;5.20;4.68;;;29.00;99.90;;;;;;5073123;28;20561;-61
2023/06/20 11:26:36;;;;;;;5.10;4.60;;;28.90;99.90;;;;;;5055821;28;20053;-61
2023/06/20 11:29:05;;;;;;;5.28;4.57;;;28.90;99.90;;;;;;5055786;28;20052;-61
2023/06/20 11:31:32;;;;;;;4.45;4.05;;;29.00;99.90;;;;;;5073282;28;20084;-61
2023/06/20 11:34:07;;;;;;;4.93;4.28;;;29.10;99.90;;;;;;5073715;28;20049;-62
2023/06/20 11:36:34;;;;;;;5.25;4.75;;;29.30;99.90;;;;;;5073418;28;20051;-62
2023/06/20 11:39:05;;;;;;;5.32;4.43;;;29.60;99.90;;;;;;5073945;28;20037;-62
2023/06/20 11:41:34;;;;;;;3.97;3.55;;;29.90;99.90;;;;;;5056573;28;20474;-61
2023/06/20 11:44:00;;;;;;;4.95;4.30;;;29.80;99.90;;;;;;5056390;28;20374;-62
2023/06/20 11:46:26;;;;;;;4.20;3.60;;;29.80;99.90;;;;;;5073414;28;20469;-62
2023/06/20 11:48:54;;;;;;;4.20;3.80;;;29.90;99.90;;;;;;5073339;28;20059;-62
2023/06/20 11:51:21;;;;;;;4.20;3.80;;;30.10;99.90;;;;;;5055599;28;20053;-62
2023/06/20 11:53:47;;;;;;;4.20;3.78;;;30.50;99.90;;;;;;5073256;28;20043;-62
2023/06/20 11:56:14;;;;;;;5.30;3.72;;;30.60;99.90;;;;;;5073550;28;20067;-62
2023/06/20 11:58:46;;;;;;;3.97;3.60;;;30.50;99.90;;;;;;5055551;28;20125;-61
2023/06/20 12:01:17;;;;;;;4.70;3.90;;;30.30;99.90;;;;;;5073404;28;20048;-61
2023/06/20 12:03:44;;;;;;;4.05;3.65;;;30.20;99.90;;;;;;5073022;28;20053;-61
2023/06/20 12:06:36;;;;;;;4.35;3.50;;;30.00;99.90;;;;;;5073168;28;20048;-62
2023/06/20 12:09:11;;;;;;;4.15;3.60;;;30.00;99.90;;;;;;5055630;28;20036;-62
2023/06/20 12:11:52;;;;;;;4.20;3.35;;;30.20;99.90;;;;;;5073356;28;20059;-62
2023/06/20 12:14:18;;;;;;;3.63;3.20;;;30.40;99.90;;;;;;5073269;28;20137;-62
2023/06/20 12:16:44;;;;;;;4.03;3.63;;;30.70;99.90;;;;;;5073026;28;20110;-61
2023/06/20 12:19:11;;;;;;;3.95;3.42;;;30.80;99.90;;;;;;5055214;28;20075;-61
2023/06/20 12:21:40;;;;;;;4.10;3.43;;;30.80;99.90;;;;;;5055244;28;20560;-61
2023/06/20 12:24:07;;;;;;;4.60;3.95;;;30.60;99.90;;;;;;5073469;28;20045;-62
2023/06/20 12:26:33;;;;;;;4.38;3.60;;;30.20;99.90;;;;;;5055814;28;20048;-62
2023/06/20 12:28:58;;;;;;;4.57;3.75;;;29.90;99.90;;;;;;5072912;28;20132;-61
2023/06/20 12:31:24;;;;;;;5.18;3.80;;;29.60;99.90;;;;;;5055193;28;20049;-61
2023/06/20 12:33:50;;;;;;;4.28;3.63;;;29.30;99.90;;;;;;5072749;28;20124;-61
2023/06/20 12:36:16;;;;;;;4.28;3.78;;;29.10;99.90;;;;;;5072519;28;20497;-61
2023/06/20 12:38:42;;;;;;;3.95;3.53;;;29.00;99.90;;;;;;5072809;28;20044;-61
2023/06/20 12:41:09;;;;;;;5.72;3.90;;;28.80;99.90;;;;;;5072811;28;20051;-61
2023/06/20 12:43:35;;;;;;;4.38;3.97;;;28.70;99.90;;;;;;5072652;28;20128;-62
2023/06/20 12:46:01;;;;;;;4.30;3.90;;;28.50;99.90;;;;;;5075673;28;20088;-61